This is the latest recevied weather packets stored in our database for station/object N6WDO. If no packets are shown the sender has not sent any weather packets the latest 10 day(s).
| Time | Temp. | Humidity | Pressure | Rain* | Wind** | Luminosity | Snow |
|---|---|---|---|---|---|---|---|
| 1777606504 | 15.56° C | 74% | 1014.4 hPa | 0 mm | - | 0 W/m² | - |
| 1777606200 | 16.11° C | 73% | 1014.3 hPa | 0 mm | - | 0 W/m² | - |
| 1777605896 | 16.67° C | 71% | 1013.9 hPa | 0 mm | - | 0 W/m² | - |
| 1777605591 | 16.67° C | 70% | 1014.1 hPa | 0 mm | - | 0 W/m² | - |
| 1777605286 | 16.67° C | 71% | 1013.9 hPa | 0 mm | - | 0 W/m² | - |
| 1777604982 | 16.67° C | 72% | 1013.9 hPa | 0 mm | - | 0 W/m² | - |
| 1777604678 | 16.67° C | 71% | 1013.9 hPa | 0 mm | - | 0 W/m² | - |
| 1777604375 | 17.78° C | 70% | 1014 hPa | 0 mm | - | 0 W/m² | - |
| 1777604074 | 18.89° C | 61% | 1013.8 hPa | 0 mm | - | 1 W/m² | - |
| 1777603772 | 19.44° C | 56% | 1013.9 hPa | 0 mm | - | 2 W/m² | - |
| 1777603468 | 20° C | 55% | 1013.9 hPa | 0 mm | - | 4 W/m² | - |
| 1777603164 | 20.56° C | 51% | 1013.9 hPa | 0 mm | - | 6 W/m² | - |
| 1777602860 | 20.56° C | 51% | 1013.9 hPa | 0 mm | - | 8 W/m² | - |
| 1777602555 | 20.56° C | 51% | 1013.7 hPa | 0 mm | - | 11 W/m² | - |
| 1777602251 | 21.11° C | 51% | 1013.7 hPa | 0 mm | - | 14 W/m² | - |
| 1777601946 | 21.67° C | 49% | 1013.6 hPa | 0 mm | - | 16 W/m² | - |
| 1777601641 | 21.67° C | 49% | 1013.8 hPa | 0 mm | - | 19 W/m² | - |
| 1777601337 | 22.22° C | 48% | 1013.7 hPa | 0 mm | - | 20 W/m² | - |
| 1777601034 | 22.22° C | 48% | 1013.8 hPa | 0 mm | - | 23 W/m² | - |
| 1777586161 | 25.56° C | 40% | 1014.9 hPa | 0 mm | - | 629 W/m² | - |
| 1777585859 | 26.11° C | 40% | 1014.9 hPa | 0 mm | - | 635 W/m² | - |
| 1777585559 | 25.56° C | 39% | 1014.9 hPa | 0 mm | - | 644 W/m² | - |
| 1777584344 | 25° C | 41% | 1015.1 hPa | 0 mm | - | 673 W/m² | - |
| 1777584040 | 25.56° C | 40% | 1015.1 hPa | 0 mm | - | 679 W/m² | - |
| 1777583434 | 25° C | 41% | 1015.3 hPa | 0 mm | - | 692 W/m² | - |
* Rain latest hour (hover to see other rain measurements)
** Current wind speed in m/s (hover to see current wind gust speed)